Time;durP1;ratioP1;P1;durP2;ratioP2;P2;SDS_P1;SDS_P2;PMS_P1;PMS_P2;Temp;Humidity;BMP_temperature;BMP_pressure;BME280_temperature;BME280_humidity;BME280_pressure;Samples;Min_cycle;Max_cycle;Signal;HPM_P1;HPM_P2
2022/12/02 00:01:51;;;;;;;112.47;46.45;;;8.30;99.90;;;;;;5031664;28;20057;-68
2022/12/02 00:04:24;;;;;;;113.35;44.95;;;8.30;99.90;;;;;;5027163;28;20709;-69
2022/12/02 00:06:52;;;;;;;118.82;48.00;;;8.30;99.90;;;;;;5029972;28;20075;-69
2022/12/02 00:09:32;;;;;;;110.22;48.75;;;8.10;99.90;;;;;;5028281;28;20080;-68
2022/12/02 00:12:00;;;;;;;117.40;49.05;;;8.10;99.90;;;;;;5028791;28;20080;-69
2022/12/02 00:14:29;;;;;;;118.82;48.88;;;8.10;99.90;;;;;;5029864;28;20071;-68
2022/12/02 00:16:55;;;;;;;118.03;51.47;;;8.10;99.90;;;;;;5027334;28;20049;-69
2022/12/02 00:19:22;;;;;;;119.03;50.17;;;8.10;99.90;;;;;;5029168;28;20108;-68
2022/12/02 00:21:49;;;;;;;113.30;47.70;;;8.10;99.90;;;;;;5031769;28;20021;-69
2022/12/02 00:24:15;;;;;;;120.18;52.03;;;8.20;99.90;;;;;;5024486;28;20105;-69
2022/12/02 00:26:41;;;;;;;110.32;49.20;;;7.90;99.90;;;;;;5027316;28;20482;-68
2022/12/02 00:29:07;;;;;;;119.82;49.72;;;7.90;99.90;;;;;;5027588;28;20036;-68
2022/12/02 00:31:33;;;;;;;119.55;51.17;;;7.90;99.90;;;;;;5023533;28;20413;-70
2022/12/02 00:33:59;;;;;;;114.63;49.65;;;7.90;99.90;;;;;;5030219;28;20474;-70
2022/12/02 00:36:26;;;;;;;119.05;52.97;;;8.00;99.90;;;;;;5021704;28;20040;-69
2022/12/02 00:38:53;;;;;;;122.18;53.83;;;8.10;99.90;;;;;;5025886;28;20032;-70
2022/12/02 00:41:18;;;;;;;126.30;56.50;;;8.10;99.90;;;;;;5023352;28;20026;-68
2022/12/02 00:46:31;;;;;;;125.32;51.55;;;7.90;99.90;;;;;;5027323;28;20072;-69
2022/12/02 00:49:02;;;;;;;120.22;51.25;;;7.90;99.90;;;;;;5028541;28;20022;-69
2022/12/02 00:51:28;;;;;;;126.97;52.60;;;7.90;99.90;;;;;;5027493;28;20065;-69
2022/12/02 00:53:53;;;;;;;124.95;52.03;;;7.90;99.90;;;;;;5029688;28;20080;-68
2022/12/02 00:56:19;;;;;;;125.45;54.35;;;7.80;99.90;;;;;;5030167;28;20033;-69
2022/12/02 00:58:45;;;;;;;119.28;52.58;;;7.70;99.90;;;;;;5029181;28;20030;-70
2022/12/02 01:01:10;;;;;;;125.35;56.83;;;7.80;99.90;;;;;;5026576;28;20474;-71
2022/12/02 01:03:36;;;;;;;119.68;57.30;;;7.70;99.90;;;;;;5025983;28;20022;-68
2022/12/02 01:06:02;;;;;;;118.22;51.85;;;7.80;99.90;;;;;;5030364;28;20052;-69
2022/12/02 01:08:28;;;;;;;127.20;53.03;;;7.80;99.90;;;;;;5035329;28;20025;-71
2022/12/02 01:10:55;;;;;;;117.40;51.42;;;7.80;99.90;;;;;;5030153;28;20025;-70
2022/12/02 01:13:22;;;;;;;113.07;49.33;;;7.70;99.90;;;;;;5034436;28;20033;-69
2022/12/02 01:15:48;;;;;;;119.28;51.50;;;7.70;99.90;;;;;;5029989;28;20033;-69
2022/12/02 01:18:14;;;;;;;118.80;51.83;;;7.60;99.90;;;;;;5025305;28;20471;-69
2022/12/02 01:20:39;;;;;;;130.73;52.17;;;7.60;99.90;;;;;;5032064;28;20075;-69
2022/12/02 01:23:05;;;;;;;123.93;51.67;;;7.50;99.90;;;;;;5026939;28;20111;-68
2022/12/02 01:25:31;;;;;;;115.70;50.90;;;7.60;99.90;;;;;;5035006;28;20374;-68
2022/12/02 01:27:56;;;;;;;116.97;49.38;;;7.60;99.90;;;;;;5024532;28;20056;-70
2022/12/02 01:30:22;;;;;;;107.80;45.75;;;7.50;99.90;;;;;;5035255;28;20069;-69
2022/12/02 01:32:48;;;;;;;112.47;45.28;;;7.50;99.90;;;;;;5031982;28;20018;-70
2022/12/02 01:35:13;;;;;;;103.72;44.03;;;7.40;99.90;;;;;;5025126;28;20030;-72
2022/12/02 01:37:39;;;;;;;102.40;45.17;;;7.40;99.90;;;;;;5023648;28;20029;-71
2022/12/02 01:40:06;;;;;;;99.97;43.55;;;7.30;99.90;;;;;;5033186;28;20021;-70
2022/12/02 01:42:32;;;;;;;97.88;41.85;;;7.30;99.90;;;;;;5033660;28;20112;-71
2022/12/02 01:44:58;;;;;;;88.25;39.75;;;7.20;99.90;;;;;;5035523;28;20110;-71
2022/12/02 01:47:25;;;;;;;100.47;40.45;;;7.20;99.90;;;;;;5030570;28;20104;-69
2022/12/02 01:49:51;;;;;;;89.95;41.33;;;7.20;99.90;;;;;;5032105;28;20018;-69
2022/12/02 01:52:17;;;;;;;94.25;41.72;;;7.10;99.90;;;;;;5024163;28;20025;-69
2022/12/02 01:54:43;;;;;;;90.60;39.88;;;7.20;99.90;;;;;;5032675;28;20068;-69
2022/12/02 01:57:13;;;;;;;87.22;39.00;;;7.20;99.90;;;;;;5025453;28;20034;-70
2022/12/02 01:59:41;;;;;;;88.97;39.00;;;7.20;99.90;;;;;;5025592;28;20105;-71
2022/12/02 02:02:26;;;;;;;89.03;39.92;;;7.30;99.90;;;;;;5028902;28;20068;-69
2022/12/02 02:04:54;;;;;;;99.75;40.45;;;7.30;99.90;;;;;;5034060;28;20032;-72
2022/12/02 02:07:20;;;;;;;100.53;43.17;;;7.20;99.90;;;;;;5033409;28;20024;-69
2022/12/02 02:09:46;;;;;;;90.28;39.58;;;7.20;99.90;;;;;;5032028;28;20030;-72
2022/12/02 02:12:11;;;;;;;91.10;40.15;;;7.20;99.90;;;;;;5029144;28;20026;-68
2022/12/02 02:14:37;;;;;;;92.70;38.58;;;7.10;99.90;;;;;;5030171;28;20389;-69
2022/12/02 02:17:02;;;;;;;99.88;41.78;;;7.10;99.90;;;;;;5027764;28;20048;-70
2022/12/02 02:19:28;;;;;;;101.40;41.00;;;7.10;99.90;;;;;;5024320;28;20029;-68
2022/12/02 02:21:55;;;;;;;96.53;39.95;;;7.10;99.90;;;;;;5033504;28;20030;-71
2022/12/02 02:24:21;;;;;;;98.00;41.10;;;7.00;99.90;;;;;;5033326;28;20049;-68
2022/12/02 02:26:47;;;;;;;95.43;40.50;;;7.10;99.90;;;;;;5031538;28;20065;-68
2022/12/02 02:29:12;;;;;;;94.57;40.05;;;7.20;99.90;;;;;;5029908;28;20071;-69
2022/12/02 02:31:38;;;;;;;94.00;39.03;;;7.20;99.90;;;;;;5029014;28;20030;-69
2022/12/02 02:34:04;;;;;;;92.55;38.47;;;7.30;99.90;;;;;;5024028;28;20074;-70
2022/12/02 02:36:29;;;;;;;95.10;40.80;;;7.20;99.90;;;;;;5029025;28;20474;-70
2022/12/02 02:38:56;;;;;;;87.68;38.30;;;7.10;99.90;;;;;;5028996;28;20061;-71
2022/12/02 02:41:21;;;;;;;97.95;40.05;;;7.00;99.90;;;;;;5032088;28;20028;-71
2022/12/02 02:43:47;;;;;;;95.78;40.63;;;7.00;99.90;;;;;;5033685;28;20033;-68
2022/12/02 02:46:13;;;;;;;93.72;39.50;;;6.90;99.90;;;;;;5021846;28;20028;-69
2022/12/02 02:48:40;;;;;;;96.80;40.88;;;7.00;99.90;;;;;;5029854;28;20377;-70
2022/12/02 02:51:07;;;;;;;93.60;40.45;;;7.00;99.90;;;;;;5024213;28;20029;-69
2022/12/02 02:53:33;;;;;;;90.65;39.88;;;7.10;99.90;;;;;;5024854;28;20017;-69
2022/12/02 02:55:59;;;;;;;88.22;36.67;;;7.10;99.90;;;;;;5032343;28;20045;-69
2022/12/02 02:58:25;;;;;;;83.82;37.53;;;7.20;99.90;;;;;;5027605;28;20161;-69
2022/12/02 03:01:07;;;;;;;89.93;39.13;;;7.10;99.90;;;;;;5028215;28;20018;-69
2022/12/02 03:03:37;;;;;;;87.97;37.53;;;7.00;99.90;;;;;;5030312;28;20034;-68
2022/12/02 03:06:05;;;;;;;87.45;38.67;;;6.90;99.90;;;;;;5028172;28;20033;-69
2022/12/02 03:08:32;;;;;;;89.82;39.28;;;6.90;99.90;;;;;;5023265;28;20552;-69
2022/12/02 03:11:00;;;;;;;90.10;39.42;;;7.00;99.90;;;;;;5032483;28;20484;-69
2022/12/02 03:13:28;;;;;;;87.53;37.13;;;7.00;99.90;;;;;;5022030;28;20030;-68
2022/12/02 03:15:54;;;;;;;87.05;38.53;;;7.10;99.90;;;;;;5029675;28;20030;-68
2022/12/02 03:18:19;;;;;;;90.10;38.22;;;7.10;99.90;;;;;;5031231;28;20108;-70
2022/12/02 03:20:46;;;;;;;85.72;37.45;;;7.00;99.90;;;;;;5032254;28;20356;-69
2022/12/02 03:23:12;;;;;;;93.95;39.65;;;6.80;99.90;;;;;;5029456;28;20538;-68
2022/12/02 03:25:37;;;;;;;85.18;38.50;;;6.90;99.90;;;;;;5025205;28;20117;-69
2022/12/02 03:28:04;;;;;;;86.93;37.45;;;7.00;99.90;;;;;;5032618;28;20017;-69
2022/12/02 03:30:30;;;;;;;80.95;36.20;;;6.90;99.90;;;;;;5024971;28;20442;-69
2022/12/02 03:32:57;;;;;;;88.78;38.35;;;6.90;99.90;;;;;;5029233;28;20551;-68
2022/12/02 03:35:23;;;;;;;89.95;39.88;;;6.90;99.90;;;;;;5025969;28;20029;-68
2022/12/02 03:37:48;;;;;;;87.25;38.40;;;6.80;99.90;;;;;;5031468;28;20087;-68
2022/12/02 03:40:14;;;;;;;86.82;38.58;;;6.80;99.90;;;;;;5029737;28;20531;-69
2022/12/02 03:42:40;;;;;;;85.10;37.10;;;6.70;99.90;;;;;;5025331;28;20104;-69
2022/12/02 03:45:07;;;;;;;83.97;36.00;;;6.70;99.90;;;;;;5022624;28;20163;-68
2022/12/02 03:47:32;;;;;;;87.45;36.17;;;6.80;99.90;;;;;;5030096;28;20049;-68
2022/12/02 03:49:58;;;;;;;83.50;35.35;;;6.70;99.90;;;;;;5029214;28;20026;-69
2022/12/02 03:52:24;;;;;;;80.85;34.80;;;6.60;99.90;;;;;;5022620;28;20022;-68
2022/12/02 03:54:50;;;;;;;83.15;37.25;;;6.50;99.90;;;;;;5024304;28;20756;-68
2022/12/02 03:57:15;;;;;;;83.55;34.92;;;6.60;99.90;;;;;;5030601;28;20095;-68
2022/12/02 03:59:41;;;;;;;82.78;35.92;;;6.70;99.90;;;;;;5032764;28;20022;-68
2022/12/02 04:02:07;;;;;;;80.53;35.95;;;6.70;99.90;;;;;;5026031;28;20041;-70
2022/12/02 04:04:33;;;;;;;84.65;35.72;;;6.70;99.90;;;;;;5024446;28;20510;-71
2022/12/02 04:06:58;;;;;;;84.32;37.17;;;6.70;99.90;;;;;;5022366;28;20386;-69
2022/12/02 04:09:24;;;;;;;86.18;35.88;;;6.80;99.90;;;;;;5027699;28;20101;-69
2022/12/02 04:11:49;;;;;;;82.30;35.90;;;6.90;99.90;;;;;;5029322;28;20025;-70
2022/12/02 04:14:15;;;;;;;81.05;36.97;;;6.80;99.90;;;;;;5030515;28;20040;-69
2022/12/02 04:16:40;;;;;;;82.40;38.00;;;6.80;99.90;;;;;;5030093;28;20044;-70
2022/12/02 04:19:06;;;;;;;80.68;34.33;;;6.80;99.90;;;;;;5030941;28;20036;-71
2022/12/02 04:21:32;;;;;;;80.60;34.17;;;6.90;99.90;;;;;;5025626;28;20029;-69
2022/12/02 04:23:57;;;;;;;81.85;35.30;;;6.90;99.90;;;;;;5029133;28;20462;-70
2022/12/02 04:26:23;;;;;;;78.15;33.95;;;6.90;99.90;;;;;;5027221;28;20026;-73
2022/12/02 04:28:48;;;;;;;78.00;35.10;;;6.80;99.90;;;;;;5028217;28;20037;-71
2022/12/02 04:31:14;;;;;;;79.70;35.25;;;6.50;99.90;;;;;;5028642;28;20108;-69
2022/12/02 04:33:39;;;;;;;77.90;34.92;;;6.30;99.90;;;;;;5024438;28;20032;-70
2022/12/02 04:36:05;;;;;;;77.10;33.10;;;6.40;99.90;;;;;;5029771;28;20032;-69
2022/12/02 04:38:31;;;;;;;83.38;35.25;;;6.40;99.90;;;;;;5028477;28;20143;-69
2022/12/02 04:40:56;;;;;;;83.60;34.45;;;6.50;99.90;;;;;;5019591;28;20518;-70
2022/12/02 04:43:22;;;;;;;82.80;34.92;;;6.40;99.90;;;;;;5030263;28;20108;-69
2022/12/02 04:45:47;;;;;;;86.43;35.60;;;6.60;99.90;;;;;;5028217;28;20021;-70
2022/12/02 04:48:13;;;;;;;79.30;34.83;;;6.60;99.90;;;;;;5023390;28;20375;-69
2022/12/02 04:50:39;;;;;;;90.57;36.08;;;6.50;99.90;;;;;;5020857;28;20030;-69
2022/12/02 04:53:04;;;;;;;82.38;36.15;;;6.60;99.90;;;;;;5032891;28;20486;-69
2022/12/02 04:55:30;;;;;;;88.90;35.58;;;6.70;99.90;;;;;;5029325;28;20164;-69
2022/12/02 04:57:55;;;;;;;92.03;38.80;;;6.60;99.90;;;;;;5032749;28;20045;-69
2022/12/02 05:00:21;;;;;;;92.13;38.42;;;6.60;99.90;;;;;;5024155;28;20290;-69
2022/12/02 05:02:46;;;;;;;79.45;34.67;;;6.60;99.90;;;;;;5027724;28;20041;-72
2022/12/02 05:05:12;;;;;;;96.00;38.72;;;6.60;99.90;;;;;;5029885;28;20021;-69
2022/12/02 05:07:38;;;;;;;97.32;40.53;;;6.60;99.90;;;;;;5032037;28;20022;-69
2022/12/02 05:10:04;;;;;;;91.35;37.65;;;6.60;99.90;;;;;;5025782;28;20113;-68
2022/12/02 05:12:30;;;;;;;94.85;39.35;;;6.60;99.90;;;;;;5030384;28;20060;-68
2022/12/02 05:14:55;;;;;;;98.68;38.85;;;6.50;99.90;;;;;;5027053;28;20074;-68
2022/12/02 05:17:21;;;;;;;92.40;36.97;;;6.40;99.90;;;;;;5022464;28;20032;-69
2022/12/02 05:19:46;;;;;;;97.68;39.60;;;6.30;99.90;;;;;;5029899;28;20026;-68
2022/12/02 05:22:12;;;;;;;94.00;39.47;;;6.20;99.90;;;;;;5024970;28;20064;-68
2022/12/02 05:24:39;;;;;;;90.28;38.47;;;6.30;99.90;;;;;;5027331;28;20026;-68
2022/12/02 05:27:05;;;;;;;97.10;38.90;;;6.40;99.90;;;;;;5017597;28;20420;-70
2022/12/02 05:29:30;;;;;;;95.70;39.03;;;6.30;99.90;;;;;;5029345;28;20026;-69
2022/12/02 05:31:56;;;;;;;92.13;36.53;;;6.20;99.90;;;;;;5027304;28;20057;-68
2022/12/02 05:34:22;;;;;;;96.50;37.63;;;6.30;99.90;;;;;;5026086;28;20030;-68
2022/12/02 05:36:47;;;;;;;96.95;37.65;;;6.30;99.90;;;;;;5030898;28;20034;-68
2022/12/02 05:39:13;;;;;;;100.88;38.88;;;6.20;99.90;;;;;;5026337;28;20381;-68
2022/12/02 05:41:38;;;;;;;93.47;39.03;;;6.30;99.90;;;;;;5031172;28;20017;-68
2022/12/02 05:44:20;;;;;;;96.57;38.05;;;6.40;99.90;;;;;;5032440;28;20017;-69
2022/12/02 05:46:45;;;;;;;93.00;37.88;;;6.30;99.90;;;;;;5026878;28;20512;-68
2022/12/02 05:49:21;;;;;;;93.65;39.45;;;6.30;99.90;;;;;;5029227;28;20045;-68
2022/12/02 05:52:01;;;;;;;92.28;37.30;;;6.40;99.90;;;;;;5031405;28;20025;-68
2022/12/02 05:54:28;;;;;;;98.82;37.85;;;6.50;99.90;;;;;;5030394;28;20033;-68
2022/12/02 05:56:56;;;;;;;90.75;38.05;;;6.40;99.90;;;;;;5030995;28;20037;-68
2022/12/02 05:59:22;;;;;;;88.05;34.83;;;6.40;99.90;;;;;;5034373;28;20049;-70
2022/12/02 06:01:54;;;;;;;85.50;35.15;;;6.40;99.90;;;;;;5028256;28;20055;-68
2022/12/02 06:04:31;;;;;;;83.20;32.50;;;6.30;99.90;;;;;;5034161;28;20029;-70
2022/12/02 06:07:00;;;;;;;84.65;34.13;;;6.30;99.90;;;;;;5034612;28;20017;-68
2022/12/02 06:09:32;;;;;;;84.05;32.67;;;6.40;99.90;;;;;;5030585;28;20076;-67
2022/12/02 06:11:59;;;;;;;76.90;30.45;;;6.30;99.90;;;;;;5032167;28;20032;-70
2022/12/02 06:14:27;;;;;;;78.60;33.00;;;6.40;99.90;;;;;;5028865;28;20033;-68
2022/12/02 06:16:56;;;;;;;76.30;31.77;;;6.40;99.90;;;;;;5031204;28;20030;-70
2022/12/02 06:19:44;;;;;;;83.68;32.85;;;6.40;99.90;;;;;;5026278;28;20377;-70
2022/12/02 06:22:16;;;;;;;72.82;30.42;;;6.50;99.90;;;;;;5029108;28;20072;-69
2022/12/02 06:24:42;;;;;;;69.30;29.40;;;6.30;99.90;;;;;;5027105;28;20448;-69
2022/12/02 06:27:12;;;;;;;77.70;30.85;;;6.30;99.90;;;;;;5023534;28;20041;-69
2022/12/02 06:29:49;;;;;;;72.28;29.25;;;6.10;99.90;;;;;;5034024;28;20135;-69
2022/12/02 06:32:20;;;;;;;70.80;29.35;;;6.00;99.90;;;;;;5028761;28;20072;-69
2022/12/02 06:34:48;;;;;;;68.72;29.27;;;6.10;99.90;;;;;;5027442;28;20442;-70
2022/12/02 06:37:23;;;;;;;60.17;25.35;;;6.30;99.90;;;;;;5024419;28;20151;-69
2022/12/02 06:39:54;;;;;;;69.03;26.92;;;6.10;99.90;;;;;;5032319;28;20033;-69
2022/12/02 06:42:33;;;;;;;60.83;27.75;;;6.10;99.90;;;;;;5021310;28;20022;-69
2022/12/02 06:45:12;;;;;;;65.55;27.80;;;6.10;99.90;;;;;;5030481;28;20018;-69
2022/12/02 06:47:40;;;;;;;61.67;26.67;;;6.10;99.90;;;;;;5027130;28;20025;-69
2022/12/02 06:50:06;;;;;;;67.13;27.75;;;6.10;99.90;;;;;;5029357;28;20040;-68
2022/12/02 06:52:38;;;;;;;74.45;28.55;;;5.90;99.90;;;;;;5029180;28;20022;-69
2022/12/02 06:55:34;;;;;;;70.18;27.98;;;5.80;99.90;;;;;;5024663;28;20454;-70
2022/12/02 06:58:24;;;;;;;65.75;28.20;;;5.80;99.90;;;;;;5026003;28;20050;-69
2022/12/02 07:00:49;;;;;;;66.90;28.35;;;5.80;99.90;;;;;;5028611;28;20029;-70
2022/12/02 07:03:32;;;;;;;68.70;29.42;;;5.80;99.90;;;;;;5019277;28;20758;-69
2022/12/02 07:06:15;;;;;;;73.50;29.77;;;5.90;99.90;;;;;;5025906;28;20079;-69
2022/12/02 07:08:41;;;;;;;69.88;29.02;;;5.90;99.90;;;;;;5022601;28;20029;-69
2022/12/02 07:11:21;;;;;;;68.35;29.08;;;6.00;99.90;;;;;;5018326;28;20033;-69
2022/12/02 07:13:47;;;;;;;75.07;29.73;;;6.10;99.90;;;;;;5029235;28;20065;-69
2022/12/02 07:16:33;;;;;;;77.63;30.40;;;6.20;99.90;;;;;;5032972;28;20065;-69
2022/12/02 07:19:00;;;;;;;80.80;31.60;;;6.30;99.90;;;;;;5023344;28;20028;-70
2022/12/02 07:21:25;;;;;;;66.63;28.58;;;6.30;99.90;;;;;;5027576;28;20026;-68
2022/12/02 07:23:51;;;;;;;69.65;29.15;;;6.20;99.90;;;;;;5025659;28;20071;-69
2022/12/02 07:26:18;;;;;;;72.70;29.48;;;6.30;99.90;;;;;;5026427;28;20113;-69
2022/12/02 07:28:44;;;;;;;67.18;29.67;;;6.20;99.90;;;;;;5023800;28;20031;-68
2022/12/02 07:31:22;;;;;;;72.25;28.27;;;6.30;99.90;;;;;;5025611;28;20057;-69
2022/12/02 07:33:49;;;;;;;74.28;29.90;;;6.40;99.90;;;;;;5031425;28;20025;-69
2022/12/02 07:36:15;;;;;;;69.10;28.42;;;6.40;99.90;;;;;;5022777;28;20034;-68
2022/12/02 07:38:40;;;;;;;69.40;29.05;;;6.30;99.90;;;;;;5024381;28;20048;-68
2022/12/02 07:41:06;;;;;;;69.20;29.30;;;6.30;99.90;;;;;;5025667;28;20045;-69
2022/12/02 07:43:32;;;;;;;78.22;30.83;;;6.40;99.90;;;;;;5024350;28;20025;-69
2022/12/02 07:45:58;;;;;;;69.32;28.73;;;6.50;99.90;;;;;;5032868;28;20101;-69
2022/12/02 07:48:23;;;;;;;74.85;29.35;;;6.40;99.90;;;;;;5025985;28;20031;-68
2022/12/02 07:50:49;;;;;;;75.80;30.02;;;6.50;99.90;;;;;;5023543;28;20095;-69
2022/12/02 07:53:14;;;;;;;73.00;29.15;;;6.50;99.90;;;;;;5025626;28;20429;-69
2022/12/02 07:55:40;;;;;;;74.75;28.75;;;6.50;99.90;;;;;;5028239;28;20033;-69
2022/12/02 07:58:06;;;;;;;73.07;29.25;;;6.30;99.90;;;;;;5023708;28;20486;-69
2022/12/02 08:00:32;;;;;;;66.60;26.63;;;6.40;99.90;;;;;;5023724;28;20026;-69
2022/12/02 08:02:57;;;;;;;73.35;28.98;;;6.50;99.90;;;;;;5032044;28;20495;-69
2022/12/02 08:05:23;;;;;;;75.18;30.52;;;6.40;99.90;;;;;;5023084;28;20044;-68
2022/12/02 08:07:49;;;;;;;69.80;29.65;;;6.40;99.90;;;;;;5027336;28;20033;-69
2022/12/02 08:10:15;;;;;;;75.03;31.63;;;6.40;99.90;;;;;;5021696;28;20112;-70
2022/12/02 08:12:41;;;;;;;73.28;28.83;;;6.40;99.90;;;;;;5022014;28;20025;-69
2022/12/02 08:15:08;;;;;;;70.75;29.45;;;6.50;99.90;;;;;;5021561;28;20088;-69
2022/12/02 08:17:35;;;;;;;66.95;28.48;;;6.50;99.90;;;;;;5017946;28;20034;-68
2022/12/02 08:20:01;;;;;;;65.15;29.10;;;6.50;99.90;;;;;;5021716;28;20043;-69
2022/12/02 08:22:27;;;;;;;67.25;28.33;;;6.50;99.90;;;;;;5023947;28;20394;-69
2022/12/02 08:24:54;;;;;;;72.43;30.23;;;6.50;99.90;;;;;;5020906;28;20021;-69
2022/12/02 08:27:20;;;;;;;66.07;29.85;;;6.60;99.90;;;;;;5023098;28;20025;-69
2022/12/02 08:29:47;;;;;;;71.47;28.73;;;6.60;99.90;;;;;;5025058;28;20018;-68
2022/12/02 08:32:13;;;;;;;69.78;28.60;;;6.60;99.90;;;;;;5024155;28;20026;-69
2022/12/02 08:34:38;;;;;;;65.07;28.63;;;6.60;99.90;;;;;;5027150;28;20029;-69
2022/12/02 08:37:04;;;;;;;69.90;30.60;;;6.50;99.90;;;;;;5027001;28;20677;-73
2022/12/02 08:39:30;;;;;;;74.97;29.70;;;6.40;99.90;;;;;;5021853;28;20026;-70
2022/12/02 08:41:55;;;;;;;66.93;28.13;;;6.40;99.90;;;;;;5022095;28;20034;-69
2022/12/02 08:44:21;;;;;;;60.85;26.98;;;6.40;99.90;;;;;;5025287;28;20017;-69
2022/12/02 08:46:46;;;;;;;66.38;28.60;;;6.40;99.90;;;;;;5029727;28;20040;-70
2022/12/02 08:49:12;;;;;;;63.55;27.65;;;6.40;99.90;;;;;;5032354;28;20040;-69
2022/12/02 08:51:38;;;;;;;67.43;26.92;;;6.40;99.90;;;;;;5023684;28;20030;-71
2022/12/02 08:54:03;;;;;;;63.05;27.33;;;6.40;99.90;;;;;;5020726;28;20029;-68
2022/12/02 08:56:29;;;;;;;60.20;26.33;;;6.30;99.90;;;;;;5019519;28;20036;-68
2022/12/02 08:58:54;;;;;;;63.53;27.80;;;6.00;99.90;;;;;;5025620;28;20036;-69
2022/12/02 09:01:20;;;;;;;64.95;26.80;;;6.10;99.90;;;;;;5026154;28;20039;-70
2022/12/02 09:03:46;;;;;;;64.50;26.45;;;6.10;99.90;;;;;;5022344;28;20022;-68
2022/12/02 09:06:11;;;;;;;59.15;24.65;;;6.00;99.90;;;;;;5025364;28;20112;-69
2022/12/02 09:08:37;;;;;;;67.68;26.08;;;6.00;99.90;;;;;;5021810;28;20108;-71
2022/12/02 09:11:02;;;;;;;62.17;25.73;;;6.10;99.90;;;;;;5022078;28;20025;-70
2022/12/02 09:13:28;;;;;;;62.95;26.65;;;6.10;99.90;;;;;;5025163;28;20105;-70
2022/12/02 09:15:54;;;;;;;67.40;25.40;;;6.20;99.90;;;;;;5030918;28;20030;-70
2022/12/02 09:18:19;;;;;;;60.35;26.25;;;6.20;99.90;;;;;;5023120;28;20112;-68
2022/12/02 09:20:45;;;;;;;64.40;25.58;;;6.30;99.90;;;;;;5021881;28;20381;-69
2022/12/02 09:23:10;;;;;;;60.80;24.25;;;6.30;99.90;;;;;;5029282;28;20036;-68
2022/12/02 09:25:36;;;;;;;66.45;24.65;;;6.20;99.90;;;;;;5022889;28;20116;-69
2022/12/02 09:28:02;;;;;;;62.85;25.90;;;6.00;99.90;;;;;;5023191;28;20092;-69
2022/12/02 09:30:27;;;;;;;61.47;23.95;;;6.10;99.90;;;;;;5027572;28;20511;-69
2022/12/02 09:32:53;;;;;;;62.38;23.92;;;6.10;99.90;;;;;;5026871;28;20032;-68
2022/12/02 09:35:18;;;;;;;65.75;25.67;;;6.10;99.90;;;;;;5032157;28;20022;-70
2022/12/02 09:37:44;;;;;;;61.00;24.98;;;6.10;99.90;;;;;;5025550;28;20049;-70
2022/12/02 09:40:10;;;;;;;53.88;23.02;;;6.10;99.90;;;;;;5033743;28;20135;-70
2022/12/02 09:42:36;;;;;;;56.38;23.48;;;6.10;99.90;;;;;;5028140;28;20032;-69
2022/12/02 09:45:02;;;;;;;60.28;22.75;;;6.10;99.90;;;;;;5033526;28;20025;-70
2022/12/02 09:47:28;;;;;;;61.40;22.27;;;6.00;99.90;;;;;;5029389;28;20069;-68
2022/12/02 09:49:55;;;;;;;49.65;20.45;;;6.10;99.90;;;;;;5042696;28;20014;-69
2022/12/02 09:52:25;;;;;;;53.78;20.38;;;5.90;99.90;;;;;;5027419;28;20025;-69
2022/12/02 09:54:52;;;;;;;53.60;21.13;;;6.00;99.90;;;;;;5033655;28;20045;-68
2022/12/02 09:57:19;;;;;;;44.30;18.95;;;6.10;99.90;;;;;;5026587;28;20571;-68
2022/12/02 09:59:45;;;;;;;43.67;17.38;;;6.10;99.90;;;;;;5032573;28;20478;-68
2022/12/02 10:02:25;;;;;;;47.83;18.23;;;6.10;99.90;;;;;;5033810;28;20048;-70
2022/12/02 10:04:51;;;;;;;45.97;19.25;;;6.10;99.90;;;;;;5026678;28;20259;-71
2022/12/02 10:07:17;;;;;;;42.17;18.38;;;5.90;99.90;;;;;;5026752;28;20489;-68
2022/12/02 10:09:42;;;;;;;43.05;18.77;;;6.00;99.90;;;;;;5025125;28;20075;-68
2022/12/02 10:12:10;;;;;;;39.42;17.13;;;6.10;99.90;;;;;;5030920;28;20371;-69
2022/12/02 10:14:36;;;;;;;39.47;18.13;;;6.00;99.90;;;;;;5032142;28;20496;-67
2022/12/02 10:17:13;;;;;;;47.70;18.92;;;6.00;99.90;;;;;;5024483;28;20144;-67
2022/12/02 10:19:39;;;;;;;52.92;20.23;;;5.90;99.90;;;;;;5026002;28;20048;-67
2022/12/02 10:22:14;;;;;;;58.85;20.83;;;5.90;99.90;;;;;;5024611;28;20413;-67
2022/12/02 10:24:39;;;;;;;53.85;19.70;;;5.70;99.90;;;;;;5025320;28;20017;-68
2022/12/02 10:27:05;;;;;;;47.45;21.02;;;5.70;99.90;;;;;;5024474;28;20174;-68
2022/12/02 10:29:31;;;;;;;64.20;22.98;;;5.80;99.90;;;;;;5027000;28;20103;-68
2022/12/02 10:31:57;;;;;;;55.20;21.20;;;5.80;99.90;;;;;;5026718;28;20109;-68
2022/12/02 10:34:23;;;;;;;62.85;22.92;;;5.80;99.90;;;;;;5025215;28;20029;-68
2022/12/02 10:36:49;;;;;;;62.40;23.73;;;5.80;99.90;;;;;;5028263;28;20086;-68
2022/12/02 10:39:26;;;;;;;62.63;22.27;;;5.90;99.90;;;;;;5021312;28;20021;-68
2022/12/02 10:42:03;;;;;;;64.47;24.48;;;5.90;99.90;;;;;;5027994;28;20393;-68
2022/12/02 10:44:31;;;;;;;59.88;23.60;;;6.00;99.90;;;;;;5023583;28;20029;-69
2022/12/02 10:47:18;;;;;;;65.90;24.65;;;6.00;99.90;;;;;;5022305;28;20037;-68
2022/12/02 10:49:45;;;;;;;66.90;23.48;;;5.90;99.90;;;;;;5022731;28;20022;-69
2022/12/02 10:52:12;;;;;;;67.65;26.23;;;6.00;99.90;;;;;;5027960;28;20044;-69
2022/12/02 10:54:42;;;;;;;71.45;26.77;;;5.90;99.90;;;;;;5024913;28;20041;-70
2022/12/02 10:57:13;;;;;;;76.40;28.63;;;5.90;99.90;;;;;;5023830;28;20401;-69
2022/12/02 10:59:39;;;;;;;73.25;26.83;;;5.80;99.90;;;;;;5016824;28;20013;-69
2022/12/02 11:02:21;;;;;;;84.90;27.40;;;5.90;99.90;;;;;;5016868;28;20041;-69
2022/12/02 11:04:47;;;;;;;68.97;26.92;;;5.80;99.90;;;;;;5026624;28;20022;-69
2022/12/02 11:07:16;;;;;;;79.70;28.40;;;6.00;99.90;;;;;;5022244;28;20030;-69
2022/12/02 11:09:50;;;;;;;67.60;27.27;;;5.90;99.90;;;;;;5025951;28;20032;-69
2022/12/02 11:12:48;;;;;;;74.95;25.50;;;5.80;99.90;;;;;;5025926;28;20028;-69
2022/12/02 11:15:41;;;;;;;76.70;25.90;;;6.00;99.90;;;;;;5021409;28;20095;-69
2022/12/02 11:18:09;;;;;;;72.82;25.48;;;6.00;99.90;;;;;;5021926;28;20486;-68
2022/12/02 11:20:40;;;;;;;75.53;26.50;;;5.90;99.90;;;;;;5029418;28;20477;-69
2022/12/02 11:23:33;;;;;;;77.95;26.02;;;5.80;99.90;;;;;;5025059;28;20508;-69
2022/12/02 11:26:25;;;;;;;;;;;5.80;99.90;;;;;;5026283;28;20038;-67
2022/12/02 11:28:50;;;;;;;77.88;28.17;;;5.80;99.90;;;;;;5023992;28;19905;-69
2022/12/02 11:31:19;;;;;;;91.05;28.58;;;5.80;99.90;;;;;;5028554;28;20029;-68
2022/12/02 11:33:52;;;;;;;78.10;27.45;;;5.90;99.90;;;;;;5023906;28;20113;-69
2022/12/02 11:36:26;;;;;;;84.68;27.40;;;5.90;99.90;;;;;;5025346;28;20124;-70
2022/12/02 11:38:51;;;;;;;78.13;28.33;;;6.00;99.90;;;;;;5029336;28;20076;-71
2022/12/02 11:41:28;;;;;;;88.07;28.50;;;5.90;99.90;;;;;;5018323;28;22421;-70
2022/12/02 11:44:29;;;;;;;86.57;27.08;;;5.80;99.90;;;;;;5022786;28;20044;-71
2022/12/02 11:47:01;;;;;;;89.22;27.92;;;5.90;99.90;;;;;;5055176;28;20041;-69
2022/12/02 11:49:39;;;;;;;95.13;30.08;;;6.00;99.90;;;;;;5026378;28;20029;-71
2022/12/02 11:52:16;;;;;;;89.35;29.75;;;5.90;99.90;;;;;;5029851;28;20029;-71
2022/12/02 11:55:09;;;;;;;88.00;31.00;;;5.90;99.90;;;;;;5053492;28;20382;-72
2022/12/02 11:57:44;;;;;;;83.30;29.90;;;6.00;99.90;;;;;;5022825;28;20052;-72
2022/12/02 12:00:30;;;;;;;89.32;29.58;;;6.10;99.90;;;;;;5021697;28;20029;-71
2022/12/02 12:03:16;;;;;;;85.03;30.02;;;6.10;99.90;;;;;;5028440;28;20026;-72
2022/12/02 12:06:21;;;;;;;79.78;28.10;;;6.00;99.90;;;;;;5022861;28;20557;-70
2022/12/02 12:08:50;;;;;;;86.68;28.48;;;6.00;99.90;;;;;;5024750;28;20045;-71
2022/12/02 12:11:25;;;;;;;81.45;28.88;;;5.80;99.90;;;;;;5032565;28;20017;-72
2022/12/02 12:14:01;;;;;;;70.53;28.40;;;5.90;99.90;;;;;;5029791;28;20037;-70
2022/12/02 12:16:31;;;;;;;75.30;27.15;;;5.90;99.90;;;;;;5026626;28;20381;-73
2022/12/02 12:19:10;;;;;;;77.65;26.70;;;5.90;99.90;;;;;;5019894;28;20045;-72
2022/12/02 12:21:41;;;;;;;75.28;28.30;;;5.90;99.90;;;;;;5029542;28;20025;-73
2022/12/02 12:24:24;;;;;;;63.13;26.48;;;5.90;99.90;;;;;;5020888;28;20033;-73
2022/12/02 12:26:51;;;;;;;64.15;25.77;;;5.80;99.90;;;;;;5024614;28;20022;-71
2022/12/02 12:29:18;;;;;;;60.65;26.00;;;5.70;99.90;;;;;;5027309;28;20393;-71
2022/12/02 12:31:44;;;;;;;62.45;24.63;;;5.80;99.90;;;;;;5024916;28;20026;-72
2022/12/02 12:34:10;;;;;;;61.17;25.48;;;5.80;99.90;;;;;;5023514;28;20053;-71
2022/12/02 12:36:37;;;;;;;58.60;25.08;;;5.80;99.90;;;;;;5024268;28;20061;-72
2022/12/02 12:39:04;;;;;;;59.15;26.23;;;5.80;99.90;;;;;;5025417;28;20026;-73
2022/12/02 12:41:30;;;;;;;54.42;26.67;;;5.80;99.90;;;;;;4999699;28;20338;-73
2022/12/02 12:43:56;;;;;;;54.85;25.60;;;5.90;99.90;;;;;;5014201;28;20025;-72
2022/12/02 12:46:21;;;;;;;51.67;23.67;;;5.90;99.90;;;;;;5022995;28;20022;-70